Terminal Aerodrome Forecast
Issued by NWS Grand Forks, ND

Home | Current Version | Previous Version | Text Only | Print | Product List | Glossary Off
Versions: 1 2 3 4 5 6 7 8 9 10 11 12 13 14 15 16 17 18 19 20 21

275
FTUS43 KFGF 230315 AAB
TAFGFK
TAF AMD
KGFK 230315Z 2303/2324 01015G22KT P6SM SCT020 BKN025
      TEMPO 2303/2306 6SM -SN SCT010 BKN020
     FM230600 01012KT 5SM -RASN OVC015
     FM230800 01010KT 3SM -SN OVC012
     FM231400 04012KT 4SM -SN BKN015 OVC020
     FM231900 06013KT P6SM OVC025=

USA.gov is the U.S. government's official web portal to all federal, state and local government web resources and services.